createdAt,value
2022-10-31T00:02:24.447Z,30.33
2022-10-31T00:07:27.216Z,31.92
2022-10-31T00:12:30.083Z,35.20
2022-10-31T00:17:35.640Z,27.90
2022-10-31T00:22:38.344Z,32.33
2022-10-31T00:27:41.042Z,30.17
2022-10-31T00:32:43.950Z,34.70
2022-10-31T00:37:46.784Z,30.97
2022-10-31T00:42:49.583Z,26.58
2022-10-31T00:47:52.373Z,30.77
2022-10-31T00:52:55.120Z,32.87
2022-10-31T00:57:58.223Z,30.52
2022-10-31T01:03:01.643Z,35.53
2022-10-31T01:08:04.737Z,31.52
2022-10-31T01:13:07.517Z,36.42
2022-10-31T01:18:10.264Z,29.13
2022-10-31T01:23:13.003Z,30.05
2022-10-31T01:28:17.146Z,29.57
2022-10-31T01:33:19.883Z,31.17
2022-10-31T01:38:23.290Z,31.65
2022-10-31T01:43:42.953Z,30.83
2022-10-31T01:48:45.732Z,26.73
2022-10-31T01:53:49.380Z,29.13
2022-10-31T01:58:53.253Z,31.75
2022-10-31T02:03:56.957Z,28.35
2022-10-31T02:09:01.902Z,31.17
2022-10-31T02:14:05.244Z,32.60
2022-10-31T02:19:12.999Z,36.13
2022-10-31T02:24:40.440Z,26.10
2022-10-31T02:30:08.450Z,29.10
2022-10-31T02:35:23.289Z,31.53
2022-10-31T02:40:37.318Z,39.83
2022-10-31T02:46:00.369Z,26.07
2022-10-31T02:51:06.313Z,35.67
2022-10-31T02:56:13.420Z,31.88
2022-10-31T03:02:05.626Z,32.03
2022-10-31T03:07:41.176Z,31.92
2022-10-31T03:13:10.597Z,31.37
2022-10-31T03:18:23.028Z,28.58
2022-10-31T03:23:26.928Z,61.40
2022-10-31T03:28:40.798Z,30.27
2022-10-31T03:33:45.698Z,32.63
2022-10-31T03:38:49.039Z,39.63
2022-10-31T03:44:05.074Z,32.97
2022-10-31T03:49:08.337Z,37.50
2022-10-31T03:54:21.439Z,33.63
2022-10-31T03:59:32.368Z,35.88
2022-10-31T04:04:36.730Z,36.57
2022-10-31T04:09:45.219Z,32.30
2022-10-31T04:14:50.134Z,33.30
2022-10-31T04:19:52.866Z,33.87
2022-10-31T04:24:55.595Z,32.75
2022-10-31T04:29:58.292Z,30.13
2022-10-31T04:35:00.960Z,33.45
2022-10-31T04:40:05.513Z,30.77
2022-10-31T04:45:37.206Z,27.20
2022-10-31T04:50:39.857Z,29.05
2022-10-31T04:55:43.683Z,30.47
2022-10-31T05:00:56.546Z,26.67
2022-10-31T05:05:59.240Z,31.67
2022-10-31T05:11:04.522Z,24.57
2022-10-31T05:16:08.613Z,31.55
2022-10-31T05:21:29.540Z,24.80
2022-10-31T05:26:36.430Z,25.92
2022-10-31T05:31:39.191Z,24.65
2022-10-31T05:36:44.030Z,26.10
2022-10-31T05:41:55.005Z,24.98
2022-10-31T05:47:03.663Z,30.43
2022-10-31T05:52:24.934Z,24.45
2022-10-31T05:57:36.061Z,24.83
2022-10-31T06:02:38.919Z,23.17
2022-10-31T06:08:02.378Z,23.55
2022-10-31T06:13:07.789Z,24.23
2022-10-31T06:18:16.667Z,23.70
2022-10-31T06:23:24.740Z,23.17
2022-10-31T06:28:34.993Z,22.03
2022-10-31T06:33:49.647Z,23.85
2022-10-31T06:38:53.637Z,22.07
2022-10-31T06:44:02.254Z,29.83
2022-10-31T06:49:27.808Z,24.92
2022-10-31T06:54:33.362Z,26.90
2022-10-31T06:59:37.737Z,28.50
2022-10-31T07:04:56.150Z,27.17
2022-10-31T07:09:59.832Z,24.17
2022-10-31T07:15:27.390Z,25.67
2022-10-31T07:20:31.889Z,24.63
2022-10-31T07:25:34.861Z,22.17
2022-10-31T07:30:42.403Z,23.43
2022-10-31T07:35:45.211Z,24.27
2022-10-31T07:40:56.699Z,25.38
2022-10-31T07:46:01.452Z,21.53
2022-10-31T07:51:22.711Z,20.33
2022-10-31T07:56:54.645Z,23.03
2022-10-31T08:01:57.509Z,23.25
2022-10-31T08:07:19.172Z,21.95
2022-10-31T08:12:29.429Z,23.30
2022-10-31T08:17:35.921Z,21.00
2022-10-31T08:22:42.773Z,25.40
2022-10-31T08:27:54.124Z,20.60
2022-10-31T08:33:11.068Z,23.40
2022-10-31T08:38:32.282Z,18.53
2022-10-31T08:43:35.244Z,20.40
2022-10-31T08:48:38.073Z,22.17
2022-10-31T08:53:41.441Z,19.75
2022-10-31T08:59:04.028Z,21.55
2022-10-31T09:04:22.326Z,21.67
2022-10-31T09:09:25.287Z,20.73
2022-10-31T09:14:28.296Z,18.53
2022-10-31T09:19:57.310Z,15.02
2022-10-31T09:25:07.330Z,15.93
2022-10-31T09:30:10.861Z,16.57
2022-10-31T09:35:14.361Z,14.02
2022-10-31T09:40:17.778Z,15.10
2022-10-31T09:45:45.420Z,16.95
2022-10-31T09:51:11.399Z,12.18
2022-10-31T09:56:25.920Z,13.83
2022-10-31T10:01:57.087Z,12.73
2022-10-31T10:07:06.770Z,18.23
2022-10-31T10:13:02.169Z,14.38
2022-10-31T10:18:32.509Z,16.55
2022-10-31T10:23:58.439Z,18.20
2022-10-31T10:29:09.862Z,13.57
2022-10-31T10:34:23.766Z,14.63
2022-10-31T10:39:36.217Z,13.73
2022-10-31T10:45:06.309Z,16.95
2022-10-31T10:50:21.351Z,15.93
2022-10-31T10:55:24.149Z,15.65
2022-10-31T11:00:32.988Z,15.37
2022-10-31T11:05:54.663Z,15.93
2022-10-31T11:11:20.363Z,14.13
2022-10-31T11:16:31.401Z,16.20
2022-10-31T11:21:36.010Z,16.38
2022-10-31T11:26:40.729Z,15.30
2022-10-31T11:31:44.888Z,15.70
2022-10-31T11:36:47.801Z,16.38
2022-10-31T11:41:52.359Z,15.33
2022-10-31T11:47:01.293Z,13.80
2022-10-31T11:52:26.649Z,13.20
2022-10-31T11:57:32.681Z,13.70
2022-10-31T12:02:36.040Z,18.60
2022-10-31T12:07:39.030Z,15.77
2022-10-31T12:13:26.189Z,14.00
2022-10-31T12:18:49.016Z,12.73
2022-10-31T12:24:36.735Z,10.07
2022-10-31T12:29:39.508Z,13.38
2022-10-31T12:35:05.398Z,13.07
2022-10-31T12:40:29.793Z,12.10
2022-10-31T12:45:52.922Z,15.07
2022-10-31T12:51:30.944Z,14.02
2022-10-31T12:56:58.581Z,14.13
2022-10-31T13:02:40.339Z,12.67
2022-10-31T13:07:49.010Z,12.77
2022-10-31T13:12:58.784Z,12.77
2022-10-31T13:18:07.752Z,10.85
2022-10-31T13:29:04.779Z,14.13
2022-10-31T13:34:39.840Z,14.52
2022-10-31T13:39:56.334Z,12.80
2022-10-31T13:45:13.224Z,12.73
2022-10-31T13:50:30.935Z,16.90
2022-10-31T13:55:41.742Z,15.37
2022-10-31T14:00:45.164Z,12.43
2022-10-31T14:05:55.061Z,19.10
2022-10-31T14:10:58.196Z,13.38
2022-10-31T14:16:08.327Z,13.23
2022-10-31T14:21:26.159Z,14.40
2022-10-31T14:26:33.551Z,17.02
2022-10-31T14:31:37.224Z,11.13
2022-10-31T14:37:17.190Z,13.60
2022-10-31T14:42:34.283Z,15.43
2022-10-31T14:47:55.460Z,16.67
2022-10-31T14:53:02.098Z,15.52
2022-10-31T14:58:08.769Z,14.47
2022-10-31T15:03:24.320Z,19.73
2022-10-31T15:08:41.853Z,14.43
2022-10-31T15:13:55.361Z,16.20
2022-10-31T15:19:01.955Z,17.30
2022-10-31T15:24:04.952Z,16.87
2022-10-31T15:29:17.085Z,14.82
2022-10-31T15:34:43.403Z,14.93
2022-10-31T15:39:47.361Z,17.10
2022-10-31T15:44:58.715Z,13.75
2022-10-31T15:50:03.552Z,17.97
2022-10-31T15:55:24.140Z,11.10
2022-10-31T16:00:30.581Z,17.00
2022-10-31T16:05:48.551Z,15.27
2022-10-31T16:10:51.552Z,16.98
2022-10-31T16:16:28.806Z,16.43
2022-10-31T16:21:38.489Z,17.83
2022-10-31T16:26:41.480Z,19.08
2022-10-31T16:31:44.412Z,15.73
2022-10-31T16:36:47.919Z,18.08
2022-10-31T16:41:56.101Z,18.37
2022-10-31T16:47:07.967Z,17.75
2022-10-31T16:52:11.053Z,20.88
2022-10-31T16:57:25.340Z,18.23
2022-10-31T17:02:28.086Z,19.20
2022-10-31T17:07:30.931Z,15.63
2022-10-31T17:12:33.795Z,15.60
2022-10-31T17:17:36.597Z,17.80
2022-10-31T17:27:47.588Z,17.10
2022-10-31T17:32:51.361Z,17.00
2022-10-31T17:37:54.047Z,17.92
2022-10-31T17:42:58.644Z,18.23
2022-10-31T17:48:01.611Z,17.47
2022-10-31T17:53:04.782Z,18.38
2022-10-31T17:58:07.782Z,15.73
2022-10-31T18:03:10.787Z,18.67
2022-10-31T18:08:13.548Z,15.68
2022-10-31T18:13:16.670Z,15.93
2022-10-31T18:18:19.917Z,17.33
2022-10-31T18:23:22.720Z,19.20
2022-10-31T18:28:25.855Z,19.33
2022-10-31T18:33:28.903Z,19.23
2022-10-31T18:38:31.739Z,16.80
2022-10-31T18:43:35.019Z,22.05
2022-10-31T18:48:37.999Z,22.20
2022-10-31T18:53:41.259Z,23.77
2022-10-31T18:58:44.207Z,28.35
2022-10-31T19:03:52.479Z,26.27
2022-10-31T19:09:00.729Z,28.25
2022-10-31T19:14:04.567Z,30.47
2022-10-31T19:19:07.634Z,29.00
2022-10-31T19:24:10.539Z,31.92
2022-10-31T19:29:13.329Z,29.63
2022-10-31T19:34:16.029Z,34.22
2022-10-31T19:39:19.219Z,28.83
2022-10-31T19:44:22.039Z,36.67
2022-10-31T19:49:24.887Z,29.77
2022-10-31T19:54:27.738Z,29.63
2022-10-31T19:59:33.916Z,30.55
2022-10-31T20:04:39.719Z,28.20
2022-10-31T20:09:45.990Z,36.30
2022-10-31T20:14:49.888Z,25.98
2022-10-31T20:19:52.721Z,38.93
2022-10-31T20:24:55.519Z,39.85
2022-10-31T20:29:58.229Z,31.00
2022-10-31T20:35:01.004Z,43.00
2022-10-31T20:40:04.070Z,34.90
2022-10-31T20:45:07.623Z,34.63
2022-10-31T20:50:10.707Z,34.92
2022-10-31T20:55:13.592Z,30.57
2022-10-31T21:00:16.549Z,27.98
2022-10-31T21:05:19.241Z,38.90
2022-10-31T21:10:22.041Z,34.07
2022-10-31T21:15:24.797Z,33.80
2022-10-31T21:20:28.198Z,30.80
2022-10-31T21:25:30.978Z,39.05
2022-10-31T21:30:33.738Z,39.42
2022-10-31T21:35:36.500Z,34.77
2022-10-31T21:40:39.271Z,36.97
2022-10-31T21:45:42.039Z,39.57
2022-10-31T21:50:44.729Z,39.28
2022-10-31T21:55:47.558Z,40.83
2022-10-31T22:00:50.396Z,45.67
2022-10-31T22:05:54.760Z,40.88
2022-10-31T22:11:05.739Z,37.47
2022-10-31T22:16:11.627Z,45.38
2022-10-31T22:21:17.470Z,36.40
2022-10-31T22:26:20.629Z,45.20
2022-10-31T22:31:24.837Z,46.28
2022-10-31T22:36:29.541Z,94.47
2022-10-31T22:41:34.819Z,49.55
2022-10-31T22:46:39.251Z,43.97
2022-10-31T22:51:43.343Z,50.30
2022-10-31T22:56:46.880Z,40.25
2022-10-31T23:01:49.568Z,38.37
2022-10-31T23:06:52.268Z,43.67
2022-10-31T23:11:55.199Z,42.10
2022-10-31T23:16:57.919Z,40.07
2022-10-31T23:22:02.603Z,70.40
2022-10-31T23:27:15.871Z,45.50
2022-10-31T23:32:25.328Z,40.00
2022-10-31T23:37:30.442Z,41.38
2022-10-31T23:42:33.138Z,42.33
2022-10-31T23:47:38.330Z,39.63
2022-10-31T23:52:43.442Z,79.03
2022-10-31T23:57:46.130Z,40.53
